MSP weather

Minneapolis-St Paul International/Wold-Chamberlain Airport
Minneapolis, Minnesota, United States

Public forecast

Using degrees Fahrenheit for public forecast. Weather courtesy of forecast.io.

METAR (pilot weather report)

Retrieved 2017/07/23 03:53 UTC (22 minutes ago):

KMSP 230353Z 29004KT 10SM CLR 26/16 A2984 RMK AO2 SLP098 T02610156

TAF (pilot weather forecast)

Forecast is more than 12 hours old.

Retrieved 2017/07/22 00:30 UTC (1 day ago):

TAF KMSP 222327Z 2300/2406 33006KT P6SM SCT250 FM231700 32009KT P6SM SCT025 BKN040 FM232200 35008KT P6SM SCT040 FM240200 02005KT P6SM FEW200